Time;durP1;ratioP1;P1;durP2;ratioP2;P2;SDS_P1;SDS_P2;PMS_P1;PMS_P2;Temp;Humidity;BMP_temperature;BMP_pressure;BME280_temperature;BME280_humidity;BME280_pressure;Samples;Min_cycle;Max_cycle;Signal;HPM_P1;HPM_P2
2023/09/22 00:01:17;;;;;;;32.67;20.02;;;;;;;15.40;100.00;99765.97;4987578;28;20050;-91
2023/09/22 00:03:43;;;;;;;31.30;19.23;;;;;;;15.40;100.00;99776.72;4987104;28;20031;-93
2023/09/22 00:06:11;;;;;;;34.20;19.60;;;;;;;15.35;100.00;99770.97;5002190;28;20155;-91
2023/09/22 00:08:37;;;;;;;34.53;20.38;;;;;;;15.41;100.00;99780.25;4982588;28;20125;-91
2023/09/22 00:11:07;;;;;;;29.75;19.08;;;;;;;15.31;100.00;99784.88;4999866;28;20039;-90
2023/09/22 00:13:33;;;;;;;32.63;19.98;;;;;;;15.36;100.00;99775.38;4980585;28;20070;-90
2023/09/22 00:15:59;;;;;;;33.40;21.40;;;;;;;15.29;100.00;99780.50;4980407;28;20027;-91
2023/09/22 00:18:24;;;;;;;32.97;20.15;;;;;;;15.34;100.00;99779.19;4982929;28;20404;-90
2023/09/22 00:20:50;;;;;;;32.10;20.83;;;;;;;15.31;100.00;99777.66;4983685;28;20034;-91
2023/09/22 00:23:15;;;;;;;36.95;21.35;;;;;;;15.26;100.00;99782.63;5001009;28;20030;-90
2023/09/22 00:25:41;;;;;;;35.17;20.88;;;;;;;15.19;100.00;99784.25;5000279;28;20396;-90
2023/09/22 00:28:07;;;;;;;34.53;22.52;;;;;;;15.25;100.00;99784.47;5004549;28;20093;-91
2023/09/22 00:30:33;;;;;;;39.25;22.95;;;;;;;15.24;100.00;99788.16;4980280;28;20034;-91
2023/09/22 00:32:59;;;;;;;36.55;22.30;;;;;;;15.31;100.00;99787.56;4983077;28;20781;-92
2023/09/22 00:35:25;;;;;;;32.28;22.27;;;;;;;15.25;100.00;99789.84;4998062;28;20046;-91
2023/09/22 00:37:52;;;;;;;34.60;22.77;;;;;;;15.21;100.00;99780.44;5016677;28;20042;-91
2023/09/22 00:40:18;;;;;;;41.17;25.17;;;;;;;15.23;100.00;99789.19;5015706;28;20049;-91
2023/09/22 00:42:44;;;;;;;40.85;24.15;;;;;;;15.18;100.00;99790.63;5030994;28;20014;-91
2023/09/22 00:45:10;;;;;;;41.40;24.92;;;;;;;15.07;100.00;99775.59;5013831;28;20036;-91
2023/09/22 00:47:36;;;;;;;38.42;24.73;;;;;;;15.09;100.00;99778.13;5015740;28;20039;-90
2023/09/22 00:50:02;;;;;;;38.45;26.08;;;;;;;15.06;100.00;99781.97;4980885;28;20178;-91
2023/09/22 00:52:29;;;;;;;43.90;27.13;;;;;;;15.07;100.00;99778.28;4981015;28;20022;-89
2023/09/22 00:54:58;;;;;;;45.47;27.50;;;;;;;15.04;100.00;99775.88;4997581;28;20035;-91
2023/09/22 00:57:24;;;;;;;42.25;27.55;;;;;;;15.14;100.00;99773.97;5013352;28;20085;-90
2023/09/22 00:59:50;;;;;;;39.03;26.20;;;;;;;15.04;100.00;99775.88;5015139;28;20154;-91
2023/09/22 01:02:16;;;;;;;45.03;26.13;;;;;;;14.95;100.00;99774.09;5007215;28;20035;-90
2023/09/22 01:04:42;;;;;;;43.67;26.45;;;;;;;14.97;100.00;99772.13;5029979;28;20038;-91
2023/09/22 01:07:09;;;;;;;41.75;26.02;;;;;;;14.99;100.00;99770.13;5014454;28;20097;-90
2023/09/22 01:09:37;;;;;;;37.47;25.60;;;;;;;14.88;100.00;99775.72;4997389;28;20101;-91
2023/09/22 01:12:03;;;;;;;43.25;27.45;;;;;;;14.94;100.00;99781.31;4997058;28;20133;-91
2023/09/22 01:14:33;;;;;;;47.13;27.25;;;;;;;14.99;100.00;99786.25;4996112;28;20050;-90
2023/09/22 01:16:58;;;;;;;51.15;28.30;;;;;;;14.93;100.00;99793.06;4979950;28;20038;-89
2023/09/22 01:19:25;;;;;;;46.95;29.17;;;;;;;15.02;100.00;99794.84;5020157;28;20053;-90
2023/09/22 01:21:50;;;;;;;44.40;27.60;;;;;;;14.98;100.00;99800.66;4993509;28;20489;-90
2023/09/22 01:24:16;;;;;;;46.45;27.70;;;;;;;15.03;100.00;99804.56;4984504;28;20026;-90
2023/09/22 01:26:42;;;;;;;45.88;28.15;;;;;;;14.98;100.00;99806.03;5014370;28;20035;-90
2023/09/22 01:29:08;;;;;;;43.38;27.20;;;;;;;14.98;100.00;99809.56;4998875;28;20039;-91
2023/09/22 01:31:36;;;;;;;43.38;24.88;;;;;;;14.93;100.00;99817.22;4996823;28;20081;-89
2023/09/22 01:34:02;;;;;;;37.33;22.92;;;;;;;14.78;100.00;99826.78;4999925;28;20035;-90
2023/09/22 01:36:32;;;;;;;39.88;24.15;;;;;;;14.83;100.00;99819.13;4979597;28;20054;-90
2023/09/22 01:38:59;;;;;;;38.70;22.27;;;;;;;14.82;100.00;99819.28;4980608;28;20058;-90
2023/09/22 01:41:25;;;;;;;37.67;23.73;;;;;;;14.70;100.00;99830.19;4997132;28;20034;-90
2023/09/22 01:43:50;;;;;;;34.55;21.83;;;;;;;14.62;100.00;99822.06;5014877;28;20042;-91
2023/09/22 01:46:16;;;;;;;35.88;21.33;;;;;;;14.58;100.00;99809.91;4995860;28;20038;-90
2023/09/22 01:48:41;;;;;;;32.90;20.17;;;;;;;14.67;100.00;99811.72;4996190;28;20361;-90
2023/09/22 01:51:07;;;;;;;35.53;20.77;;;;;;;14.65;100.00;99816.38;4996536;28;20049;-91
2023/09/22 01:53:35;;;;;;;33.08;20.10;;;;;;;14.73;100.00;99832.59;4979129;28;20041;-90
2023/09/22 01:56:00;;;;;;;30.08;18.55;;;;;;;14.80;100.00;99829.28;4977896;28;20031;-91
2023/09/22 01:58:29;;;;;;;35.25;20.92;;;;;;;14.73;100.00;99837.09;4976315;28;20043;-90
2023/09/22 02:00:56;;;;;;;37.90;22.30;;;;;;;14.84;100.00;99830.69;4981460;28;20042;-90
2023/09/22 02:03:22;;;;;;;39.00;21.63;;;;;;;14.79;100.00;99839.19;4982849;28;20045;-90
2023/09/22 02:05:48;;;;;;;31.55;19.58;;;;;;;14.80;100.00;99838.19;5032639;28;20038;-90
2023/09/22 02:08:13;;;;;;;36.63;20.83;;;;;;;14.46;100.00;99836.06;5032996;28;20435;-90
2023/09/22 02:10:42;;;;;;;33.38;19.88;;;;;;;14.23;100.00;99840.94;5032502;28;20041;-91
2023/09/22 02:13:09;;;;;;;33.05;20.25;;;;;;;14.22;100.00;99846.44;5017513;28;20039;-91
2023/09/22 02:15:35;;;;;;;38.95;21.15;;;;;;;14.14;100.00;99847.16;4983229;28;20034;-89
2023/09/22 02:18:01;;;;;;;35.80;20.08;;;;;;;13.97;100.00;99838.03;4998828;28;20101;-92
2023/09/22 02:20:30;;;;;;;32.05;19.48;;;;;;;13.94;100.00;99843.66;4982730;28;20031;-91
2023/09/22 02:22:59;;;;;;;33.13;18.70;;;;;;;13.94;100.00;99842.81;4999593;28;20038;-90
2023/09/22 02:25:25;;;;;;;37.95;19.42;;;;;;;13.98;100.00;99850.44;4982539;28;20039;-90
2023/09/22 02:27:53;;;;;;;34.05;20.08;;;;;;;13.85;100.00;99844.50;4983266;28;20407;-90
2023/09/22 02:30:19;;;;;;;36.10;19.45;;;;;;;13.77;100.00;99848.91;4982857;28;20026;-90
2023/09/22 02:32:50;;;;;;;51.33;20.38;;;;;;;13.69;100.00;99846.94;4999248;28;20042;-90
2023/09/22 02:35:21;;;;;;;40.20;21.55;;;;;;;13.70;100.00;99851.28;4984596;28;20053;-90
2023/09/22 02:37:47;;;;;;;52.00;22.45;;;;;;;13.56;100.00;99857.94;5001229;28;20116;-88
2023/09/22 02:40:14;;;;;;;41.50;22.38;;;;;;;13.59;100.00;99854.13;5001090;28;20097;-90
2023/09/22 02:42:40;;;;;;;46.45;24.70;;;;;;;13.50;100.00;99861.16;5000398;28;20034;-90
2023/09/22 02:45:06;;;;;;;46.33;25.92;;;;;;;13.58;100.00;99858.63;4983516;28;20480;-90
2023/09/22 02:47:32;;;;;;;60.85;26.58;;;;;;;13.60;100.00;99870.03;5000175;28;20053;-90
2023/09/22 02:49:58;;;;;;;47.15;25.92;;;;;;;13.36;100.00;99869.63;4983933;28;20121;-90
2023/09/22 02:52:23;;;;;;;46.40;23.25;;;;;;;13.37;100.00;99871.31;5018625;28;20050;-90
2023/09/22 02:54:57;;;;;;;42.58;21.98;;;;;;;13.33;100.00;99865.38;4999483;28;20081;-90
2023/09/22 02:57:23;;;;;;;37.67;17.90;;;;;;;13.45;100.00;99868.78;5000070;28;20026;-89
2023/09/22 02:59:54;;;;;;;37.47;17.63;;;;;;;13.57;100.00;99872.19;5000201;28;20038;-90
2023/09/22 03:02:21;;;;;;;33.60;17.05;;;;;;;13.58;100.00;99874.72;4997098;28;20039;-90
2023/09/22 03:04:49;;;;;;;32.33;17.05;;;;;;;13.54;100.00;99865.25;5012359;28;20700;-89
2023/09/22 03:07:15;;;;;;;32.53;15.80;;;;;;;13.46;100.00;99865.13;5027693;28;20105;-90
2023/09/22 03:09:40;;;;;;;37.03;16.77;;;;;;;13.37;100.00;99868.63;4996079;28;20131;-89
2023/09/22 03:12:06;;;;;;;35.53;17.25;;;;;;;13.38;100.00;99862.28;4994918;28;20038;-90
2023/09/22 03:14:32;;;;;;;36.33;16.20;;;;;;;13.27;100.00;99865.09;4998013;28;20039;-89
2023/09/22 03:16:59;;;;;;;38.75;18.23;;;;;;;13.15;100.00;99875.91;4981535;28;20130;-90
2023/09/22 03:19:25;;;;;;;37.10;17.55;;;;;;;13.36;100.00;99873.16;4996968;28;20675;-89
2023/09/22 03:21:50;;;;;;;38.10;17.40;;;;;;;13.26;100.00;99877.66;4980771;28;20072;-89
2023/09/22 03:24:16;;;;;;;36.00;16.92;;;;;;;13.24;100.00;99874.25;4981387;28;20030;-91
2023/09/22 03:26:42;;;;;;;34.80;16.83;;;;;;;13.41;100.00;99875.41;4997770;28;20045;-89
2023/09/22 03:29:07;;;;;;;35.60;16.92;;;;;;;13.39;100.00;99874.69;5014568;28;20037;-90
2023/09/22 03:31:33;;;;;;;37.25;16.67;;;;;;;13.47;100.00;99872.19;5014034;28;20049;-90
2023/09/22 03:33:58;;;;;;;38.75;18.27;;;;;;;13.30;100.00;99867.47;5015796;28;20352;-90
2023/09/22 03:36:30;;;;;;;42.45;18.20;;;;;;;13.26;100.00;99864.25;5031010;28;20027;-90
2023/09/22 03:38:59;;;;;;;38.90;17.52;;;;;;;13.28;100.00;99867.63;5029318;28;20046;-90
2023/09/22 03:41:28;;;;;;;39.30;17.30;;;;;;;13.21;100.00;99863.78;5004638;28;20042;-89
2023/09/22 03:43:55;;;;;;;36.80;17.27;;;;;;;13.11;100.00;99870.97;4999353;28;20033;-89
2023/09/22 03:46:22;;;;;;;40.40;17.75;;;;;;;13.10;100.00;99878.16;4993599;28;20047;-90
2023/09/22 03:48:48;;;;;;;39.85;18.13;;;;;;;13.17;100.00;99879.28;4980340;28;20043;-90
2023/09/22 03:51:17;;;;;;;42.65;18.33;;;;;;;13.00;100.00;99873.72;4969489;28;20089;-89
2023/09/22 03:53:44;;;;;;;45.80;19.60;;;;;;;12.99;100.00;99874.72;4986716;28;20043;-90
2023/09/22 03:56:10;;;;;;;43.90;18.00;;;;;;;13.00;100.00;99882.59;4977468;28;20039;-90
2023/09/22 03:58:35;;;;;;;44.72;20.20;;;;;;;12.96;100.00;99879.38;5000399;28;20049;-89
2023/09/22 04:01:05;;;;;;;43.22;19.73;;;;;;;13.15;100.00;99883.06;4997420;28;20455;-89
2023/09/22 04:03:31;;;;;;;46.95;19.50;;;;;;;13.16;100.00;99882.94;4997118;28;20105;-89
2023/09/22 04:06:01;;;;;;;47.00;20.92;;;;;;;13.21;100.00;99875.38;4997337;28;20385;-90
2023/09/22 04:08:32;;;;;;;50.63;22.40;;;;;;;13.32;100.00;99876.25;4997240;28;20039;-90
2023/09/22 04:10:58;;;;;;;50.75;21.20;;;;;;;13.29;100.00;99879.19;5016056;28;20086;-90
2023/09/22 04:13:29;;;;;;;49.80;20.55;;;;;;;13.42;100.00;99866.38;4997533;28;20034;-89
2023/09/22 04:16:02;;;;;;;44.05;19.60;;;;;;;13.44;100.00;99872.44;4987466;28;20063;-90
2023/09/22 04:18:29;;;;;;;46.20;19.42;;;;;;;13.31;100.00;99871.88;4984740;28;20579;-91
2023/09/22 04:21:01;;;;;;;45.22;20.23;;;;;;;13.31;100.00;99872.72;4998946;28;20034;-89
2023/09/22 04:23:27;;;;;;;59.88;22.20;;;;;;;13.28;100.00;99883.69;4997592;28;20040;-90
2023/09/22 04:25:54;;;;;;;49.75;21.48;;;;;;;13.41;100.00;99880.78;4981654;28;20027;-89
2023/09/22 04:28:23;;;;;;;47.50;21.58;;;;;;;13.53;100.00;99889.50;4980921;28;20038;-89
2023/09/22 04:30:49;;;;;;;45.17;21.15;;;;;;;13.54;100.00;99889.38;4996831;28;20034;-90
2023/09/22 04:33:15;;;;;;;49.67;20.88;;;;;;;13.54;100.00;99889.38;4996998;28;20042;-89
2023/09/22 04:35:41;;;;;;;51.13;22.05;;;;;;;13.55;100.00;99884.84;4996300;28;20480;-90
2023/09/22 04:38:08;;;;;;;49.38;22.17;;;;;;;13.52;100.00;99885.16;4996688;28;20026;-90
2023/09/22 04:40:38;;;;;;;43.13;20.63;;;;;;;13.60;100.00;99888.78;4979779;28;20511;-91
2023/09/22 04:43:07;;;;;;;42.85;21.25;;;;;;;13.63;100.00;99885.84;5014224;28;20030;-89
2023/09/22 04:45:40;;;;;;;42.42;20.23;;;;;;;13.58;100.00;99885.44;4997020;28;20066;-90
2023/09/22 04:48:13;;;;;;;44.55;19.13;;;;;;;13.76;100.00;99888.25;4980867;28;20570;-90
2023/09/22 04:50:42;;;;;;;40.50;19.20;;;;;;;13.82;100.00;99894.91;5022419;28;20038;-90
2023/09/22 04:53:08;;;;;;;39.63;19.20;;;;;;;13.86;100.00;99893.63;4997406;28;20039;-90
2023/09/22 04:55:35;;;;;;;39.45;18.30;;;;;;;13.94;100.00;99888.38;5010138;28;20859;-90
2023/09/22 04:58:06;;;;;;;35.53;16.77;;;;;;;13.91;100.00;99886.00;4988998;28;20109;-90
2023/09/22 05:00:34;;;;;;;29.80;16.10;;;;;;;13.84;100.00;99893.75;4981603;28;20046;-90
2023/09/22 05:03:00;;;;;;;36.42;16.98;;;;;;;13.98;100.00;99895.16;4998285;28;20460;-91
2023/09/22 05:05:30;;;;;;;35.83;15.43;;;;;;;13.99;100.00;99888.81;4996405;28;20035;-89
2023/09/22 05:07:59;;;;;;;33.10;16.50;;;;;;;14.08;100.00;99882.59;5015736;28;20069;-89
2023/09/22 05:10:25;;;;;;;30.08;15.82;;;;;;;14.08;100.00;99881.75;4999787;28;20141;-90
2023/09/22 05:12:53;;;;;;;25.88;13.95;;;;;;;14.14;100.00;99892.72;4971345;28;20045;-90
2023/09/22 05:15:20;;;;;;;31.33;15.48;;;;;;;14.17;100.00;99896.97;4999831;28;20051;-91
2023/09/22 05:17:46;;;;;;;25.27;14.40;;;;;;;13.97;100.00;99897.00;4999849;28;20035;-90
2023/09/22 05:20:12;;;;;;;24.80;13.80;;;;;;;13.98;100.00;99903.19;4984587;28;20049;-90
2023/09/22 05:22:40;;;;;;;27.40;14.60;;;;;;;13.97;100.00;99913.06;5001846;28;20077;-90
2023/09/22 05:25:06;;;;;;;27.77;14.27;;;;;;;14.00;100.00;99909.25;5001840;28;20046;-90
2023/09/22 05:27:32;;;;;;;30.30;13.75;;;;;;;14.10;100.00;99914.59;4986612;28;20042;-89
2023/09/22 05:29:57;;;;;;;23.48;13.25;;;;;;;14.13;100.00;99904.44;5021814;28;20034;-90
2023/09/22 05:32:23;;;;;;;22.60;12.48;;;;;;;14.19;100.00;99903.88;4987009;28;20057;-90
2023/09/22 05:34:51;;;;;;;21.20;12.75;;;;;;;14.16;100.00;99896.13;5021529;28;20049;-89
2023/09/22 05:37:19;;;;;;;32.67;14.60;;;;;;;14.27;100.00;99903.16;5007183;28;20395;-91
2023/09/22 05:39:44;;;;;;;29.27;12.73;;;;;;;14.21;100.00;99901.91;5005864;28;20109;-91
2023/09/22 05:42:11;;;;;;;26.42;13.45;;;;;;;14.21;100.00;99909.13;5004281;28;20038;-90
2023/09/22 05:44:37;;;;;;;28.95;13.77;;;;;;;14.26;100.00;99912.22;5028181;28;20038;-91
2023/09/22 05:47:03;;;;;;;31.38;12.73;;;;;;;14.28;100.00;99912.91;5044385;28;20042;-91
2023/09/22 05:49:28;;;;;;;21.10;11.73;;;;;;;14.24;100.00;99903.44;5024820;28;20192;-90
2023/09/22 05:51:54;;;;;;;22.55;12.10;;;;;;;14.26;100.00;99912.22;5031033;28;20038;-90
2023/09/22 05:54:20;;;;;;;20.65;10.63;;;;;;;14.20;100.00;99908.25;5028391;28;20034;-90
2023/09/22 05:56:46;;;;;;;16.95;9.95;;;;;;;13.99;100.00;99905.72;5013461;28;20046;-90
2023/09/22 05:59:13;;;;;;;19.08;10.82;;;;;;;14.07;100.00;99918.44;5015020;28;20039;-90
2023/09/22 06:01:41;;;;;;;19.48;9.77;;;;;;;13.93;100.00;99908.97;5013897;28;20045;-90
2023/09/22 06:04:09;;;;;;;19.00;9.63;;;;;;;13.90;100.00;99916.44;5035029;28;20035;-90
2023/09/22 06:06:35;;;;;;;14.05;8.48;;;;;;;13.70;100.00;99929.00;5033494;28;20026;-89
2023/09/22 06:09:01;;;;;;;14.50;8.48;;;;;;;13.69;100.00;99921.94;5015930;28;20030;-90
2023/09/22 06:11:27;;;;;;;19.80;8.45;;;;;;;13.71;100.00;99920.00;5015964;28;20038;-90
2023/09/22 06:13:53;;;;;;;16.23;8.60;;;;;;;13.66;100.00;99925.78;5016320;28;20029;-90
2023/09/22 06:16:18;;;;;;;14.32;8.05;;;;;;;13.71;100.00;99930.72;5000050;28;20049;-90
2023/09/22 06:18:44;;;;;;;19.60;8.38;;;;;;;13.68;100.00;99929.16;5032884;28;20050;-90
2023/09/22 06:21:10;;;;;;;13.60;8.60;;;;;;;13.69;100.00;99928.16;5015637;28;20042;-90
2023/09/22 06:23:36;;;;;;;12.50;7.97;;;;;;;13.69;100.00;99930.84;5014541;28;20042;-89
2023/09/22 06:26:10;;;;;;;13.32;7.65;;;;;;;13.77;100.00;99930.16;4998634;28;20038;-90
2023/09/22 06:28:39;;;;;;;17.73;7.40;;;;;;;13.78;100.00;99942.56;5031868;28;20038;-90
2023/09/22 06:31:05;;;;;;;14.32;7.38;;;;;;;13.80;100.00;99942.41;5012557;28;20042;-90
2023/09/22 06:33:31;;;;;;;11.77;6.60;;;;;;;13.88;100.00;99937.19;4990711;28;20089;-90
2023/09/22 06:35:59;;;;;;;12.75;7.20;;;;;;;14.08;100.00;99936.22;5024400;28;20034;-90
2023/09/22 06:38:24;;;;;;;13.65;5.93;;;;;;;14.04;100.00;99931.28;5005838;28;20038;-91
2023/09/22 06:40:56;;;;;;;15.35;6.93;;;;;;;14.20;100.00;99940.41;5039142;28;20098;-91
2023/09/22 06:43:29;;;;;;;13.52;6.25;;;;;;;14.28;100.00;99926.31;5023838;28;20034;-90
2023/09/22 06:46:05;;;;;;;8.07;5.90;;;;;;;14.42;100.00;99930.38;5016743;28;20038;-92
2023/09/22 06:48:31;;;;;;;9.85;5.30;;;;;;;14.53;100.00;99929.41;5007536;28;20047;-90
2023/09/22 06:51:00;;;;;;;13.63;5.10;;;;;;;14.76;100.00;99917.34;5004782;28;20117;-90
2023/09/22 06:53:28;;;;;;;9.10;5.03;;;;;;;14.86;100.00;99920.81;4988403;28;20054;-90
2023/09/22 06:56:09;;;;;;;13.02;5.68;;;;;;;15.11;100.00;99911.25;5002364;28;20034;-91
2023/09/22 06:58:42;;;;;;;8.52;4.35;;;;;;;15.19;100.00;99910.47;4999330;28;20097;-92
2023/09/22 07:01:13;;;;;;;10.38;4.70;;;;;;;15.37;100.00;99921.28;4995979;28;20031;-90
2023/09/22 07:03:44;;;;;;;7.70;4.95;;;;;;;15.49;100.00;99915.53;4996754;28;20034;-93
2023/09/22 07:06:14;;;;;;;9.25;4.57;;;;;;;15.78;100.00;99917.19;5008147;28;20121;-90
2023/09/22 07:08:43;;;;;;;8.85;4.57;;;;;;;15.66;100.00;99913.03;4988093;28;20109;-90
2023/09/22 07:11:12;;;;;;;11.45;4.85;;;;;;;15.92;100.00;99913.97;4997978;28;20070;-91
2023/09/22 07:13:41;;;;;;;8.98;4.60;;;;;;;15.95;100.00;99910.97;4990967;28;20526;-92
2023/09/22 07:16:07;;;;;;;8.20;4.75;;;;;;;15.76;100.00;99914.69;4994767;28;20039;-93
2023/09/22 07:18:33;;;;;;;8.90;4.80;;;;;;;15.87;100.00;99910.06;4981337;28;20078;-92
2023/09/22 07:21:00;;;;;;;8.27;5.03;;;;;;;16.05;100.00;99909.03;4997160;28;20507;-90
2023/09/22 07:23:30;;;;;;;8.18;5.13;;;;;;;15.84;100.00;99913.06;4997391;28;20034;-91
2023/09/22 07:26:03;;;;;;;9.45;4.43;;;;;;;15.79;100.00;99921.56;4992326;28;20027;-92
2023/09/22 07:28:32;;;;;;;7.07;4.43;;;;;;;15.91;100.00;99925.72;4995988;28;20039;-92
2023/09/22 07:30:58;;;;;;;9.30;4.75;;;;;;;16.11;100.00;99923.69;4992210;28;21024;-92
2023/09/22 07:33:33;;;;;;;12.05;5.43;;;;;;;16.31;100.00;99921.66;4990259;28;20071;-93
2023/09/22 07:35:59;;;;;;;9.82;4.45;;;;;;;16.60;100.00;99926.75;4976061;28;20615;-92
2023/09/22 07:38:31;;;;;;;11.32;4.70;;;;;;;16.47;100.00;99927.19;4991061;28;20547;-92
2023/09/22 07:41:03;;;;;;;11.30;4.53;;;;;;;16.87;100.00;99938.38;4995472;28;20041;-91
2023/09/22 07:43:31;;;;;;;12.85;4.35;;;;;;;16.85;100.00;99930.47;4995282;28;20070;-92
2023/09/22 07:45:59;;;;;;;9.63;3.70;;;;;;;16.83;100.00;99933.34;4995291;28;20138;-92
2023/09/22 07:48:29;;;;;;;5.22;3.58;;;;;;;17.29;100.00;99938.44;4994199;28;20039;-92
2023/09/22 07:50:54;;;;;;;6.88;3.85;;;;;;;17.00;100.00;99934.25;4987855;28;20042;-92
2023/09/22 07:53:20;;;;;;;8.10;3.30;;;;;;;16.80;100.00;99955.19;4987798;28;20041;-93
2023/09/22 07:55:47;;;;;;;16.77;3.63;;;;;;;17.13;100.00;99958.06;4978726;28;20038;-93
2023/09/22 07:58:13;;;;;;;11.05;3.45;;;;;;;17.38;100.00;99947.41;4977934;28;20046;-92
2023/09/22 08:00:46;;;;;;;8.23;3.25;;;;;;;17.30;100.00;99950.88;4974299;28;20032;-93
2023/09/22 08:03:13;;;;;;;5.68;2.53;;;;;;;17.00;100.00;99957.66;4979526;28;20070;-93
2023/09/22 08:05:39;;;;;;;5.93;2.63;;;;;;;16.98;100.00;99960.53;4977265;28;20032;-93
2023/09/22 08:08:10;;;;;;;4.80;2.55;;;;;;;17.17;100.00;99961.25;4994838;28;20031;-93
2023/09/22 08:10:38;;;;;;;7.22;2.80;;;;;;;17.20;100.00;99959.09;4966961;28;20067;-91
2023/09/22 08:13:07;;;;;;;4.68;2.60;;;;;;;16.71;100.00;99958.81;4994114;28;20038;-92
2023/09/22 08:15:45;;;;;;;6.57;2.22;;;;;;;16.79;100.00;99961.56;4977459;28;20042;-92
2023/09/22 08:18:11;;;;;;;7.50;3.28;;;;;;;16.61;100.00;99960.75;4979211;28;20055;-90
2023/09/22 08:20:37;;;;;;;7.28;2.97;;;;;;;16.65;100.00;99967.50;4992773;28;20484;-92
2023/09/22 08:23:05;;;;;;;8.68;2.90;;;;;;;16.68;100.00;99964.50;4998402;28;20037;-93
2023/09/22 08:25:31;;;;;;;4.53;2.38;;;;;;;16.70;100.00;99958.97;4976295;28;20555;-93
2023/09/22 08:28:00;;;;;;;4.95;1.95;;;;;;;16.55;100.00;99969.44;4991162;28;20101;-91
2023/09/22 08:30:29;;;;;;;6.65;2.55;;;;;;;16.58;100.00;99971.84;4995477;28;20039;-90
2023/09/22 08:32:58;;;;;;;5.13;2.63;;;;;;;16.77;100.00;99974.38;4980620;28;20297;-92
2023/09/22 08:35:24;;;;;;;6.03;2.58;;;;;;;16.75;100.00;99965.59;4995625;28;20108;-92
2023/09/22 08:37:50;;;;;;;5.45;2.03;;;;;;;16.84;100.00;99969.19;4999299;28;20038;-90
2023/09/22 08:40:17;;;;;;;3.05;2.13;;;;;;;16.88;100.00;99967.03;4979313;28;20039;-92
2023/09/22 08:42:45;;;;;;;3.72;2.03;;;;;;;16.80;100.00;99976.72;4980814;28;20038;-92
2023/09/22 08:45:12;;;;;;;6.63;1.92;;;;;;;16.90;100.00;99973.09;5000320;28;20478;-93
2023/09/22 08:47:41;;;;;;;5.43;1.92;;;;;;;16.76;100.00;99979.88;4984027;28;20089;-92
2023/09/22 08:50:20;;;;;;;3.83;1.70;;;;;;;16.73;100.00;99981.06;5018034;28;20034;-92
2023/09/22 08:52:51;;;;;;;5.07;1.67;;;;;;;16.97;100.00;99985.78;5000512;28;20030;-92
2023/09/22 08:55:18;;;;;;;2.13;1.30;;;;;;;17.03;100.00;99985.13;4982416;28;20026;-94
2023/09/22 08:57:46;;;;;;;4.65;1.48;;;;;;;17.18;100.00;99992.63;4987777;28;20064;-91
2023/09/22 09:00:26;;;;;;;2.25;1.40;;;;;;;17.15;100.00;99993.75;4987668;28;20034;-93
2023/09/22 09:02:55;;;;;;;3.05;1.33;;;;;;;17.08;100.00;99998.97;4998608;28;20038;-93
2023/09/22 09:05:23;;;;;;;5.03;1.40;;;;;;;16.82;100.00;100004.34;4997962;28;20142;-93
2023/09/22 09:07:50;;;;;;;1.45;0.80;;;;;;;17.15;100.00;99999.16;5013677;28;20026;-91
2023/09/22 09:10:36;;;;;;;2.13;1.20;;;;;;;17.23;100.00;99995.66;4992195;28;20485;-93
2023/09/22 09:13:03;;;;;;;2.50;1.10;;;;;;;17.34;100.00;99993.53;4997245;28;20102;-91
2023/09/22 09:15:45;;;;;;;1.35;1.00;;;;;;;17.54;100.00;99995.97;5013982;28;20046;-93
2023/09/22 09:18:12;;;;;;;5.72;1.10;;;;;;;17.63;100.00;99996.84;4984889;28;20031;-94
2023/09/22 09:20:40;;;;;;;4.63;1.40;;;;;;;17.62;100.00;99996.00;5000443;28;20034;-94
2023/09/22 09:23:17;;;;;;;5.95;1.52;;;;;;;17.77;100.00;100001.63;4982887;28;20054;-92
2023/09/22 09:25:44;;;;;;;3.25;1.15;;;;;;;17.63;100.00;99996.84;5012031;28;20076;-92
2023/09/22 09:28:11;;;;;;;4.93;1.38;;;;;;;17.76;100.00;100000.78;4983700;28;20086;-94
2023/09/22 09:30:37;;;;;;;3.40;1.20;;;;;;;17.63;100.00;99996.84;4985972;28;20090;-93
2023/09/22 09:33:12;;;;;;;3.08;1.40;;;;;;;17.91;100.00;100002.84;4998662;28;20030;-91
2023/09/22 09:35:42;;;;;;;3.03;1.40;;;;;;;17.91;100.00;100000.97;4986484;28;20049;-91
2023/09/22 09:38:10;;;;;;;3.22;1.10;;;;;;;17.84;100.00;99999.97;4984667;28;20054;-92
2023/09/22 09:40:42;;;;;;;2.55;1.10;;;;;;;17.57;99.29;100001.00;5007999;28;20097;-94
2023/09/22 09:43:13;;;;;;;3.63;1.27;;;;;;;17.65;100.00;100003.75;4995911;28;20030;-95
2023/09/22 09:45:53;;;;;;;4.33;1.10;;;;;;;17.78;100.00;99997.94;5000151;28;20033;-92
2023/09/22 09:48:20;;;;;;;1.70;1.10;;;;;;;17.64;99.67;99999.38;5000079;28;20039;-93
2023/09/22 09:50:47;;;;;;;2.90;1.30;;;;;;;17.61;96.49;99992.44;4994905;28;20682;-93
2023/09/22 09:53:26;;;;;;;2.50;1.10;;;;;;;17.80;96.82;100004.84;4987254;28;20068;-93
2023/09/22 09:55:59;;;;;;;4.57;1.10;;;;;;;17.89;95.01;99992.22;4996837;28;20050;-92
2023/09/22 09:58:32;;;;;;;1.20;0.90;;;;;;;17.99;94.99;99992.06;4987106;28;20055;-91
2023/09/22 10:00:59;;;;;;;4.30;1.30;;;;;;;17.92;93.77;99988.34;4993702;28;20034;-92
2023/09/22 10:03:28;;;;;;;3.38;1.27;;;;;;;18.01;94.44;99990.03;4998960;28;20034;-93
2023/09/22 10:05:56;;;;;;;3.67;1.15;;;;;;;18.09;94.48;99985.50;5014122;28;20022;-91
2023/09/22 10:08:29;;;;;;;3.65;1.15;;;;;;;18.60;95.37;99988.06;5017987;28;20097;-94
2023/09/22 10:11:07;;;;;;;5.03;1.58;;;;;;;18.85;95.03;99978.94;4996451;28;20038;-93
2023/09/22 10:13:36;;;;;;;3.17;1.42;;;;;;;18.66;94.62;99981.13;4999405;28;20113;-92
2023/09/22 10:16:08;;;;;;;3.17;1.35;;;;;;;18.62;94.92;99976.09;4971581;28;20060;-93
2023/09/22 10:18:51;;;;;;;5.25;1.60;;;;;;;18.94;94.23;99977.06;5011581;28;20042;-94
2023/09/22 10:21:29;;;;;;;4.30;1.40;;;;;;;18.57;92.00;99973.03;5007172;28;20906;-92
2023/09/22 10:24:29;;;;;;;3.10;1.30;;;;;;;18.14;90.58;99970.69;5016439;28;20039;-92
2023/09/22 10:26:55;;;;;;;5.10;1.63;;;;;;;18.32;90.88;99972.22;4995961;28;20031;-95
2023/09/22 10:29:33;;;;;;;4.30;1.80;;;;;;;18.34;93.08;99972.03;4982271;28;20054;-92
2023/09/22 10:34:51;;;;;;;1.75;1.20;;;;;;;18.06;89.80;99985.00;5005745;28;20043;-91
2023/09/22 10:37:35;;;;;;;2.80;1.13;;;;;;;18.15;90.24;99970.50;4994029;28;20042;-93
2023/09/22 10:40:11;;;;;;;2.25;1.17;;;;;;;18.20;90.95;99980.81;4977947;28;20042;-91
2023/09/22 10:42:50;;;;;;;1.23;0.80;;;;;;;18.27;89.74;99979.09;4983377;28;20039;-89
2023/09/22 10:45:31;;;;;;;3.78;1.08;;;;;;;18.39;92.11;99977.78;5016930;28;20750;-91
2023/09/22 10:47:58;;;;;;;1.85;0.90;;;;;;;18.35;87.82;99988.06;5002901;28;20046;-92
2023/09/22 10:50:32;;;;;;;2.80;1.20;;;;;;;18.46;89.88;99986.03;4981388;28;20046;-92
2023/09/22 10:53:01;;;;;;;2.03;1.20;;;;;;;18.59;89.33;99992.63;5015571;28;20076;-90
2023/09/22 10:55:35;;;;;;;4.88;1.60;;;;;;;18.64;85.22;99992.09;5010482;28;20117;-90
2023/09/22 10:58:06;;;;;;;6.30;1.38;;;;;;;18.75;86.17;99997.19;4994103;28;20045;-93
2023/09/22 11:00:38;;;;;;;3.47;1.13;;;;;;;18.80;85.84;100000.22;4997193;28;20045;-92
2023/09/22 11:03:05;;;;;;;3.55;1.13;;;;;;;18.48;85.67;99998.38;4981430;28;20040;-94
2023/09/22 11:05:30;;;;;;;4.70;1.38;;;;;;;18.27;85.11;99996.16;5014873;28;20041;-91
2023/09/22 11:08:09;;;;;;;2.13;1.17;;;;;;;18.20;85.46;100003.22;5007313;28;20046;-90
2023/09/22 11:10:45;;;;;;;3.08;0.95;;;;;;;18.79;85.20;100000.41;4976278;28;20030;-91
2023/09/22 11:13:12;;;;;;;4.00;1.10;;;;;;;19.31;84.74;100003.47;4968897;28;20141;-93
2023/09/22 11:15:57;;;;;;;2.58;0.90;;;;;;;19.53;81.84;100010.00;5013193;28;20023;-94
2023/09/22 11:18:27;;;;;;;3.92;0.98;;;;;;;19.68;82.99;100002.00;4989203;28;20130;-92
2023/09/22 11:21:08;;;;;;;3.03;1.20;;;;;;;19.51;81.19;100019.28;4989744;28;20034;-93
2023/09/22 11:23:40;;;;;;;1.63;1.00;;;;;;;19.38;81.85;100027.97;5000284;28;20038;-91
2023/09/22 11:26:12;;;;;;;1.55;0.90;;;;;;;19.18;80.79;100023.94;5015333;28;20030;-93